Time;durP1;ratioP1;P1;durP2;ratioP2;P2;SDS_P1;SDS_P2;PMS_P1;PMS_P2;Temp;Humidity;BMP_temperature;BMP_pressure;BME280_temperature;BME280_humidity;BME280_pressure;Samples;Min_cycle;Max_cycle;Signal;HPM_P1;HPM_P2
2022/06/26 00:00:15;;;;;;;31.13;23.05;;;;;;;16.60;100.00;101054.88;5051830;28;20065;-64
2022/06/26 00:02:40;;;;;;;31.33;23.38;;;;;;;16.45;100.00;101037.06;5051836;28;20120;-63
2022/06/26 00:05:07;;;;;;;29.35;22.75;;;;;;;16.49;100.00;101046.59;5052570;28;20114;-66
2022/06/26 00:07:33;;;;;;;26.88;21.90;;;;;;;16.44;100.00;101059.25;5032699;28;20087;-65
2022/06/26 00:09:59;;;;;;;30.38;23.35;;;;;;;16.15;100.00;101018.28;5032584;28;20432;-66
2022/06/26 00:12:24;;;;;;;31.60;23.23;;;;;;;16.02;100.00;101004.81;5032310;28;20045;-65
2022/06/26 00:14:49;;;;;;;29.60;23.15;;;;;;;16.28;100.00;101064.53;5052461;28;20083;-65
2022/06/26 00:17:15;;;;;;;28.00;21.30;;;;;;;16.17;100.00;101053.63;5052292;28;20044;-65
2022/06/26 00:19:40;;;;;;;28.52;22.80;;;;;;;16.21;100.00;101071.97;5052064;28;20033;-66
2022/06/26 00:22:06;;;;;;;26.80;22.17;;;;;;;15.84;100.00;101042.06;5052144;28;20662;-64
2022/06/26 00:24:34;;;;;;;29.55;21.65;;;;;;;16.10;100.00;101081.41;5035939;28;20133;-66
2022/06/26 00:27:02;;;;;;;28.70;21.80;;;;;;;15.70;100.00;101009.09;5050909;28;20037;-65
2022/06/26 00:29:29;;;;;;;31.20;22.08;;;;;;;15.74;100.00;101029.25;5050213;28;20419;-66
2022/06/26 00:31:54;;;;;;;25.20;20.42;;;;;;;15.71;100.00;101026.75;5047592;28;20377;-66
2022/06/26 00:34:20;;;;;;;26.75;21.10;;;;;;;15.96;100.00;101083.91;5050842;28;20032;-65
2022/06/26 00:36:46;;;;;;;30.58;20.48;;;;;;;15.90;100.00;101068.28;5052281;28;20112;-66
2022/06/26 00:39:11;;;;;;;27.98;20.92;;;;;;;15.88;100.00;101064.88;5047490;28;20084;-66
2022/06/26 00:41:38;;;;;;;27.55;20.98;;;;;;;15.91;100.00;101081.47;5032452;28;20455;-65
2022/06/26 00:44:15;;;;;;;28.02;20.52;;;;;;;15.93;100.00;101079.63;5030758;28;20396;-66
2022/06/26 00:46:41;;;;;;;27.58;20.33;;;;;;;15.87;100.00;101071.97;5032205;28;20547;-63
2022/06/26 00:49:06;;;;;;;30.23;22.25;;;;;;;15.88;100.00;101072.84;5034337;28;20069;-64
2022/06/26 00:51:32;;;;;;;31.63;22.73;;;;;;;15.90;100.00;101079.78;5050708;28;20072;-66
2022/06/26 00:53:57;;;;;;;32.03;23.05;;;;;;;15.88;100.00;101078.97;5050670;28;20032;-64
2022/06/26 00:56:22;;;;;;;34.92;24.80;;;;;;;15.86;100.00;101088.81;5052137;28;20041;-65
2022/06/26 00:58:48;;;;;;;35.97;26.40;;;;;;;15.77;100.00;101068.91;5051545;28;20037;-65
2022/06/26 01:01:13;;;;;;;33.85;25.10;;;;;;;15.80;100.00;101083.81;5032199;28;20029;-65
2022/06/26 01:03:39;;;;;;;36.67;27.35;;;;;;;15.79;100.00;101073.28;5031769;28;20392;-64
2022/06/26 01:06:07;;;;;;;34.63;25.67;;;;;;;15.78;100.00;101069.78;5030738;28;20092;-64
2022/06/26 01:08:34;;;;;;;34.20;26.77;;;;;;;15.50;100.00;101025.16;5047420;28;20037;-64
2022/06/26 01:11:00;;;;;;;37.03;26.30;;;;;;;15.52;100.00;101027.75;5049185;28;20399;-64
2022/06/26 01:13:25;;;;;;;32.42;25.40;;;;;;;15.86;100.00;101095.91;5050770;28;20033;-65
2022/06/26 01:15:51;;;;;;;36.67;26.27;;;;;;;15.86;100.00;101083.50;5050604;28;20037;-64
2022/06/26 01:18:16;;;;;;;30.15;23.88;;;;;;;15.74;100.00;101068.19;5051628;28;20112;-64
2022/06/26 01:20:42;;;;;;;34.70;25.00;;;;;;;15.42;100.00;101019.34;5035116;28;20535;-67
2022/06/26 01:23:08;;;;;;;35.13;24.42;;;;;;;15.74;100.00;101084.13;5030479;28;20424;-63
2022/06/26 01:25:45;;;;;;;31.33;24.23;;;;;;;15.72;100.00;101094.81;5031959;28;20120;-64
2022/06/26 01:28:11;;;;;;;36.90;25.65;;;;;;;15.74;100.00;101095.59;5031781;28;20080;-64
2022/06/26 01:30:37;;;;;;;31.95;24.02;;;;;;;15.31;100.00;101021.69;5045445;28;20033;-66
2022/06/26 01:33:03;;;;;;;35.72;26.25;;;;;;;15.40;100.00;101036.28;5051647;28;20192;-65
2022/06/26 01:35:28;;;;;;;34.08;25.75;;;;;;;15.70;100.00;101090.53;5050429;28;20116;-65
2022/06/26 01:37:53;;;;;;;33.55;25.08;;;;;;;15.65;100.00;101087.22;5050403;28;20476;-64
2022/06/26 01:40:19;;;;;;;35.55;25.85;;;;;;;15.34;100.00;101023.31;5035696;28;20055;-65
2022/06/26 01:42:44;;;;;;;38.33;26.77;;;;;;;15.08;100.00;100979.53;5030639;28;20033;-64
2022/06/26 01:45:09;;;;;;;32.75;27.25;;;;;;;15.48;100.00;101053.56;5031761;28;20029;-64
2022/06/26 01:47:35;;;;;;;34.38;27.33;;;;;;;15.39;100.00;101037.19;5034273;28;20029;-66
2022/06/26 01:50:00;;;;;;;36.92;26.65;;;;;;;15.64;100.00;101098.78;5047493;28;20041;-64
2022/06/26 01:52:25;;;;;;;36.40;27.85;;;;;;;15.36;100.00;101055.91;5054616;28;20037;-64
2022/06/26 01:54:51;;;;;;;35.20;26.48;;;;;;;15.21;100.00;101039.81;5053709;28;20036;-64
2022/06/26 01:57:16;;;;;;;37.38;27.73;;;;;;;15.18;100.00;101039.97;5054878;28;20037;-64
2022/06/26 01:59:41;;;;;;;39.55;27.92;;;;;;;15.39;100.00;101075.22;5044548;28;20091;-65
2022/06/26 02:02:07;;;;;;;36.80;27.48;;;;;;;15.33;100.00;101091.41;5034661;28;20042;-65
2022/06/26 02:04:32;;;;;;;38.13;27.15;;;;;;;15.35;100.00;101086.06;5034748;28;20120;-65
2022/06/26 02:06:57;;;;;;;37.45;27.23;;;;;;;15.03;100.00;101047.81;5034750;28;20040;-65
2022/06/26 02:14:51;;;;;;;34.53;23.52;;;;;;;15.14;100.00;101085.28;5054479;28;20511;-63
2022/06/26 02:17:16;;;;;;;31.88;23.90;;;;;;;15.06;100.00;101074.19;5054479;28;20149;-64
2022/06/26 02:19:42;;;;;;;35.40;23.90;;;;;;;14.76;100.00;101031.41;5044213;28;20348;-64
2022/06/26 02:22:07;;;;;;;38.45;24.52;;;;;;;14.71;100.00;101024.59;5034519;28;20508;-65
2022/06/26 02:24:32;;;;;;;38.75;25.67;;;;;;;15.05;100.00;101088.34;5034697;28;20503;-64
2022/06/26 02:26:57;;;;;;;38.17;24.92;;;;;;;14.95;100.00;101079.09;5044630;28;20033;-64
2022/06/26 02:29:23;;;;;;;39.25;24.15;;;;;;;14.97;100.00;101093.16;5047642;28;20045;-65
2022/06/26 02:31:48;;;;;;;38.45;24.17;;;;;;;14.94;100.00;101083.56;5034328;28;20064;-63
2022/06/26 02:34:13;;;;;;;39.05;24.40;;;;;;;14.90;100.00;101086.41;5034464;28;20044;-63
2022/06/26 02:36:39;;;;;;;34.38;23.20;;;;;;;14.87;100.00;101103.31;5034229;28;20099;-64
2022/06/26 02:39:04;;;;;;;36.92;25.08;;;;;;;14.50;100.00;101037.03;5040727;28;20033;-64
2022/06/26 02:41:29;;;;;;;37.75;24.73;;;;;;;14.79;100.00;101088.69;5053177;28;20430;-63
2022/06/26 02:43:55;;;;;;;34.95;23.88;;;;;;;14.73;100.00;101088.97;5053999;28;20658;-63
2022/06/26 02:46:20;;;;;;;39.20;25.42;;;;;;;14.70;100.00;101084.69;5053881;28;20446;-64
2022/06/26 02:48:45;;;;;;;38.03;24.08;;;;;;;14.67;100.00;101084.81;5050960;28;20079;-66
2022/06/26 02:51:10;;;;;;;38.05;23.33;;;;;;;14.39;100.00;101048.09;5033972;28;20034;-64
2022/06/26 02:53:36;;;;;;;39.38;23.95;;;;;;;14.55;100.00;101078.28;5034086;28;20152;-63
2022/06/26 02:56:01;;;;;;;40.88;24.50;;;;;;;14.42;100.00;101068.28;5034083;28;20090;-64
2022/06/26 02:58:26;;;;;;;37.88;23.02;;;;;;;14.25;100.00;101055.78;5033494;28;20447;-64
2022/06/26 03:00:52;;;;;;;36.63;22.30;;;;;;;14.40;100.00;101081.63;5053609;28;20025;-63
2022/06/26 03:03:17;;;;;;;39.70;23.77;;;;;;;14.16;100.00;101040.28;5053696;28;20048;-62
2022/06/26 03:05:43;;;;;;;36.10;22.85;;;;;;;14.45;100.00;101089.34;5053718;28;20036;-66
2022/06/26 03:08:08;;;;;;;35.63;23.52;;;;;;;14.36;100.00;101092.44;5052439;28;20146;-64
2022/06/26 03:10:33;;;;;;;35.97;23.70;;;;;;;14.44;100.00;101115.00;5035920;28;20041;-63
2022/06/26 03:12:59;;;;;;;35.78;23.67;;;;;;;14.44;100.00;101100.88;5033685;28;20029;-65
2022/06/26 03:15:24;;;;;;;35.17;22.58;;;;;;;14.05;100.00;101048.72;5033412;28;20405;-65
2022/06/26 03:17:50;;;;;;;38.95;23.13;;;;;;;14.37;100.00;101110.00;5033375;28;20037;-64
2022/06/26 03:20:18;;;;;;;36.70;24.33;;;;;;;13.93;100.00;101043.94;5049024;28;20041;-64
2022/06/26 03:22:44;;;;;;;42.83;23.55;;;;;;;13.95;100.00;101060.59;5033226;28;20149;-64
2022/06/26 03:25:09;;;;;;;40.58;22.95;;;;;;;14.27;100.00;101127.22;5033458;28;20076;-63
2022/06/26 03:27:36;;;;;;;34.20;23.42;;;;;;;14.23;100.00;101129.13;5033323;28;20033;-64
2022/06/26 03:30:02;;;;;;;36.70;22.02;;;;;;;14.24;100.00;101124.69;5044122;28;20455;-64
2022/06/26 03:32:28;;;;;;;33.10;21.40;;;;;;;14.20;100.00;101125.75;5053342;28;20036;-64
2022/06/26 03:34:53;;;;;;;42.30;21.88;;;;;;;13.83;100.00;101066.44;5053313;28;20037;-65
2022/06/26 03:37:18;;;;;;;33.63;20.40;;;;;;;13.96;100.00;101087.94;5052606;28;20468;-63
2022/06/26 03:39:44;;;;;;;33.15;22.15;;;;;;;13.83;100.00;101079.66;5042770;28;20121;-63
2022/06/26 03:42:09;;;;;;;34.90;20.95;;;;;;;14.08;100.00;101143.88;5033205;28;20069;-62
2022/06/26 03:44:34;;;;;;;37.55;21.75;;;;;;;13.86;100.00;101107.78;5032884;28;20038;-64
2022/06/26 03:47:00;;;;;;;35.97;21.50;;;;;;;13.80;100.00;101098.31;5033142;28;20044;-64
2022/06/26 03:49:25;;;;;;;34.30;20.83;;;;;;;13.75;100.00;101094.97;5043638;28;20048;-64
2022/06/26 03:51:51;;;;;;;34.40;21.50;;;;;;;14.07;100.00;101146.56;5052856;28;20037;-63
2022/06/26 03:54:16;;;;;;;33.72;20.48;;;;;;;14.00;100.00;101132.75;5052561;28;20037;-64
2022/06/26 03:56:41;;;;;;;34.90;20.40;;;;;;;13.82;100.00;101091.16;5052635;28;20032;-63
2022/06/26 03:59:07;;;;;;;36.13;21.45;;;;;;;14.16;100.00;101137.38;5043944;28;20045;-64
2022/06/26 04:01:33;;;;;;;38.50;21.02;;;;;;;14.20;100.00;101138.97;5050438;28;20055;-64
2022/06/26 04:03:58;;;;;;;40.72;20.95;;;;;;;14.27;100.00;101135.16;5050402;28;20067;-65
2022/06/26 04:06:23;;;;;;;35.40;19.92;;;;;;;14.05;100.00;101087.53;5051296;28;20102;-64
2022/06/26 04:08:49;;;;;;;36.08;19.23;;;;;;;14.34;100.00;101126.03;5049916;28;20704;-63
2022/06/26 04:11:15;;;;;;;35.00;20.02;;;;;;;14.43;100.00;101149.47;5049651;28;20033;-65
2022/06/26 04:13:42;;;;;;;37.33;19.85;;;;;;;14.46;100.00;101144.91;5050886;28;20037;-64
2022/06/26 04:16:07;;;;;;;34.75;19.17;;;;;;;14.26;100.00;101109.59;5050480;28;20029;-65
2022/06/26 04:18:32;;;;;;;35.10;19.55;;;;;;;14.44;100.00;101136.19;5045148;28;20038;-65
2022/06/26 04:20:58;;;;;;;35.38;18.95;;;;;;;14.54;100.00;101140.13;5032196;28;20070;-64
2022/06/26 04:23:23;;;;;;;35.00;18.77;;;;;;;14.59;100.00;101137.31;5031144;28;20530;-64
2022/06/26 04:25:48;;;;;;;35.63;19.63;;;;;;;14.56;100.00;101143.56;5031547;28;20044;-64
2022/06/26 04:28:14;;;;;;;35.67;19.17;;;;;;;14.71;100.00;101162.38;5031769;28;20037;-65
2022/06/26 04:30:39;;;;;;;38.67;19.50;;;;;;;14.48;100.00;101107.75;5045677;28;20091;-65
2022/06/26 04:33:05;;;;;;;34.17;17.85;;;;;;;14.79;100.00;101163.78;5050911;28;20079;-64
2022/06/26 04:35:31;;;;;;;31.65;17.33;;;;;;;14.82;100.00;101163.63;5052103;28;20439;-64
2022/06/26 04:37:56;;;;;;;31.45;16.20;;;;;;;14.85;100.00;101179.41;5052373;28;20033;-63
2022/06/26 04:40:21;;;;;;;30.80;17.65;;;;;;;14.86;100.00;101175.81;5050956;28;20037;-63
2022/06/26 04:42:47;;;;;;;30.98;16.20;;;;;;;14.87;100.00;101204.03;5051904;28;20043;-64
2022/06/26 04:45:12;;;;;;;31.95;16.40;;;;;;;14.88;100.00;101194.31;5033855;28;20049;-64
2022/06/26 04:47:38;;;;;;;26.50;15.75;;;;;;;14.82;100.00;101176.03;5031256;28;20033;-63
2022/06/26 04:50:04;;;;;;;28.38;14.90;;;;;;;14.61;100.00;101154.84;5032094;28;20100;-64
2022/06/26 04:52:29;;;;;;;27.75;15.07;;;;;;;14.90;100.00;101189.78;5032120;28;20064;-63
2022/06/26 04:54:55;;;;;;;24.88;14.45;;;;;;;14.88;100.00;101189.88;5047000;28;20067;-63
2022/06/26 04:57:20;;;;;;;30.50;15.35;;;;;;;14.68;100.00;101151.94;5052071;28;20502;-63
2022/06/26 04:59:45;;;;;;;25.02;14.90;;;;;;;14.94;100.00;101204.63;5051926;28;20465;-64
2022/06/26 05:02:11;;;;;;;26.88;14.10;;;;;;;14.74;100.00;101168.38;5051809;28;20139;-64
2022/06/26 05:04:37;;;;;;;28.15;15.82;;;;;;;14.93;100.00;101195.81;5039333;28;20069;-64
2022/06/26 05:07:03;;;;;;;29.80;14.43;;;;;;;15.09;100.00;101212.75;5014420;28;20037;-64
2022/06/26 05:09:28;;;;;;;24.15;15.25;;;;;;;15.16;100.00;101208.91;5030784;28;20436;-63
2022/06/26 05:11:54;;;;;;;26.77;14.55;;;;;;;15.02;100.00;101181.28;5059159;28;20029;-62
2022/06/26 05:14:20;;;;;;;25.27;14.40;;;;;;;15.09;100.00;101172.97;5039086;28;20147;-63
2022/06/26 05:16:45;;;;;;;19.65;13.18;;;;;;;15.46;100.00;101217.25;5052043;28;20035;-63
2022/06/26 05:19:11;;;;;;;23.27;13.55;;;;;;;15.65;100.00;101222.56;5051590;28;20041;-63
2022/06/26 05:21:36;;;;;;;16.48;11.30;;;;;;;15.77;100.00;101214.88;5051292;28;20057;-64
2022/06/26 05:24:02;;;;;;;14.85;10.80;;;;;;;15.67;100.00;101180.91;5053761;28;20044;-64
2022/06/26 05:26:27;;;;;;;15.80;9.95;;;;;;;15.77;100.00;101160.94;5055542;28;20112;-63
2022/06/26 05:28:53;;;;;;;14.10;9.20;;;;;;;15.88;100.00;101171.88;5055318;28;20033;-63
2022/06/26 05:31:18;;;;;;;13.75;9.38;;;;;;;15.88;100.00;101155.13;5055785;28;20029;-63
2022/06/26 05:33:44;;;;;;;11.13;7.88;;;;;;;16.00;100.00;101165.13;5047981;28;20152;-63
2022/06/26 05:36:09;;;;;;;10.95;7.35;;;;;;;16.21;100.00;101202.09;5037725;28;20081;-63
2022/06/26 05:38:35;;;;;;;7.93;6.50;;;;;;;16.32;100.00;101214.84;5035426;28;20392;-64
2022/06/26 05:41:00;;;;;;;8.35;6.40;;;;;;;16.12;100.00;101177.78;5035303;28;20038;-64
2022/06/26 05:43:26;;;;;;;8.10;5.43;;;;;;;16.41;100.00;101230.31;5039680;28;20037;-63
2022/06/26 05:45:51;;;;;;;8.30;5.75;;;;;;;16.44;100.00;101224.84;5053999;28;20029;-63
2022/06/26 05:48:17;;;;;;;11.77;6.07;;;;;;;16.29;100.00;101191.06;5055327;28;20037;-64
2022/06/26 05:50:42;;;;;;;8.48;5.75;;;;;;;16.62;100.00;101244.34;5055068;28;20032;-63
2022/06/26 05:53:08;;;;;;;8.32;5.82;;;;;;;16.60;100.00;101238.28;5051739;28;20560;-62
2022/06/26 05:55:33;;;;;;;8.43;5.13;;;;;;;16.72;100.00;101250.94;5035079;28;20048;-64
2022/06/26 05:57:59;;;;;;;5.28;4.72;;;;;;;16.67;100.00;101242.31;5034938;28;20401;-62
2022/06/26 06:00:25;;;;;;;7.55;5.25;;;;;;;16.82;100.00;101268.97;5035119;28;20056;-64
2022/06/26 06:02:50;;;;;;;6.30;4.82;;;;;;;16.59;100.00;101221.47;5034969;28;20045;-63
2022/06/26 06:05:15;;;;;;;6.63;5.40;;;;;;;16.83;100.00;101259.22;5035750;28;20042;-63
2022/06/26 06:07:40;;;;;;;6.75;5.25;;;;;;;16.72;100.00;101230.50;5034945;28;20036;-63
2022/06/26 06:10:07;;;;;;;6.18;5.28;;;;;;;16.70;100.00;101224.41;5033492;28;20136;-63
2022/06/26 06:12:33;;;;;;;5.63;5.07;;;;;;;16.90;100.00;101252.63;5034522;28;20484;-62
2022/06/26 06:14:59;;;;;;;4.97;4.40;;;;;;;16.99;100.00;101276.09;5035834;28;20037;-63
2022/06/26 06:17:36;;;;;;;6.03;4.70;;;;;;;16.74;100.00;101236.63;5033568;28;20037;-63
2022/06/26 06:20:04;;;;;;;6.95;4.28;;;;;;;16.85;100.00;101233.41;5033506;28;20485;-62
2022/06/26 06:22:30;;;;;;;6.35;4.70;;;;;;;17.17;100.00;101287.56;5033045;28;20049;-63
2022/06/26 06:24:55;;;;;;;4.95;4.40;;;;;;;17.27;100.00;101276.38;5049868;28;20033;-63
2022/06/26 06:27:20;;;;;;;6.32;4.20;;;;;;;17.44;100.00;101294.09;5034720;28;20091;-62
2022/06/26 06:29:46;;;;;;;5.70;4.68;;;;;;;17.44;100.00;101255.03;5034695;28;20030;-62
2022/06/26 06:32:11;;;;;;;6.50;4.70;;;;;;;17.86;100.00;101309.59;5032595;28;20480;-63
2022/06/26 06:34:36;;;;;;;7.40;4.75;;;;;;;17.86;100.00;101309.59;5035410;28;20133;-62
2022/06/26 06:37:02;;;;;;;6.22;5.63;;;;;;;17.89;100.00;101333.38;5034131;28;20034;-63
2022/06/26 06:39:27;;;;;;;9.27;6.82;;;;;;;17.81;100.00;101341.78;5034187;28;20404;-62
2022/06/26 06:41:52;;;;;;;6.35;5.75;;;;;;;17.82;100.00;101356.81;5034131;28;20072;-62
2022/06/26 06:44:18;;;;;;;9.13;5.82;;;;;;;17.78;100.00;101365.03;5041900;28;20044;-62
2022/06/26 06:46:43;;;;;;;9.80;6.40;;;;;;;17.40;100.00;101312.03;5054252;28;20071;-61
2022/06/26 06:49:08;;;;;;;7.40;6.70;;;;;;;17.44;100.00;101299.41;5054101;28;20083;-63
2022/06/26 06:51:34;;;;;;;6.20;5.60;;;;;;;18.14;100.00;101362.19;5048765;28;20381;-61
2022/06/26 06:53:59;;;;;;;9.82;5.63;;;;;;;18.52;100.00;101366.25;5053599;28;20068;-61
2022/06/26 06:56:24;;;;;;;7.68;5.95;;;;;;;18.96;100.00;101383.22;5053606;28;20036;-61
2022/06/26 06:58:50;;;;;;;9.00;6.20;;;;;;;19.13;100.00;101384.91;5052312;28;20369;-63
2022/06/26 07:01:15;;;;;;;6.47;5.25;;;;;;;19.09;100.00;101380.69;5045686;28;20037;-62
2022/06/26 07:03:40;;;;;;;6.15;5.55;;;;;;;18.82;100.00;101355.63;5044146;28;20081;-63
2022/06/26 07:06:06;;;;;;;7.47;6.32;;;;;;;19.00;100.00;101408.75;5052109;28;20044;-62
2022/06/26 07:08:31;;;;;;;7.07;5.35;;;;;;;18.77;100.00;101363.88;5053417;28;20035;-63
2022/06/26 07:10:56;;;;;;;6.65;4.75;;;;;;;18.92;100.00;101392.34;5050411;28;20036;-62
2022/06/26 07:13:22;;;;;;;6.85;4.57;;;;;;;19.02;100.00;101414.88;5051947;28;20064;-62
2022/06/26 07:15:47;;;;;;;7.57;4.80;;;;;;;18.90;100.00;101367.56;5048876;28;20029;-63
2022/06/26 07:18:12;;;;;;;7.75;4.05;;;;;;;19.16;100.00;101402.53;5033617;28;20503;-62
2022/06/26 07:20:38;;;;;;;5.45;4.07;;;;;;;18.97;100.00;101357.41;5034343;28;20088;-62
2022/06/26 07:23:03;;;;;;;8.40;4.40;;;;;;;19.20;100.00;101399.59;5032975;28;20107;-62
2022/06/26 07:25:29;;;;;;;5.45;4.72;;;;;;;18.91;100.00;101350.59;5063335;28;20335;-62
2022/06/26 07:27:55;;;;;;;7.93;4.53;;;;;;;19.28;100.00;101400.00;5033333;28;20041;-63
2022/06/26 07:30:20;;;;;;;7.22;4.55;;;;;;;19.31;100.00;101407.84;5031682;28;20037;-63
2022/06/26 07:32:46;;;;;;;8.38;4.82;;;;;;;19.60;100.00;101411.44;5031841;28;20080;-62
2022/06/26 07:35:11;;;;;;;6.20;5.10;;;;;;;19.81;100.00;101394.13;5032880;28;20454;-63
2022/06/26 07:37:36;;;;;;;5.40;3.90;;;;;;;20.13;100.00;101413.47;5033096;28;20070;-61
2022/06/26 07:40:03;;;;;;;3.83;3.45;;;;;;;20.37;100.00;101403.94;5064957;28;20164;-63
2022/06/26 07:42:29;;;;;;;5.13;3.40;;;;;;;20.61;100.00;101414.84;5032911;28;20045;-63
2022/06/26 07:44:54;;;;;;;4.93;3.47;;;;;;;20.61;100.00;101410.38;5032211;28;20111;-63
2022/06/26 07:47:20;;;;;;;5.38;3.70;;;;;;;20.84;100.00;101413.38;5032962;28;20044;-61
2022/06/26 07:49:45;;;;;;;4.82;2.75;;;;;;;21.29;100.00;101431.72;5031653;28;20025;-61
2022/06/26 07:52:10;;;;;;;5.47;3.20;;;;;;;21.40;100.00;101428.31;5064499;28;20035;-62
2022/06/26 07:54:36;;;;;;;4.97;2.85;;;;;;;21.51;100.00;101444.53;5032617;28;20123;-60
2022/06/26 07:57:01;;;;;;;4.30;2.63;;;;;;;21.73;100.00;101413.47;5032733;28;20026;-61
2022/06/26 07:59:26;;;;;;;3.33;2.78;;;;;;;22.20;100.00;101458.41;5032840;28;20029;-60
2022/06/26 08:01:52;;;;;;;4.47;2.88;;;;;;;22.60;100.00;101421.53;5032549;28;20457;-65
2022/06/26 08:04:17;;;;;;;4.28;2.60;;;;;;;22.68;100.00;101418.31;5031083;28;20041;-61
2022/06/26 08:06:43;;;;;;;4.43;2.53;;;;;;;22.58;100.00;101457.47;5031302;28;20500;-62
2022/06/26 08:09:08;;;;;;;4.35;3.22;;;;;;;22.71;100.00;101440.41;5032425;28;20080;-61
2022/06/26 08:11:34;;;;;;;4.43;3.10;;;;;;;22.87;100.00;101424.91;5064158;28;20030;-61
2022/06/26 08:13:59;;;;;;;5.63;2.42;;;;;;;23.47;100.00;101453.50;5032200;28;20045;-60
2022/06/26 08:16:25;;;;;;;2.95;2.40;;;;;;;23.90;100.00;101477.94;5031357;28;20033;-62
2022/06/26 08:18:57;;;;;;;4.20;2.20;;;;;;;23.97;100.00;101471.94;5036100;28;20029;-65
2022/06/26 08:24:07;;;;;;;8.27;2.40;;;;;;;24.66;100.00;101470.03;5030929;28;20072;-60
2022/06/26 08:26:32;;;;;;;2.55;1.80;;;;;;;24.46;100.00;101443.88;5031644;28;20397;-59
2022/06/26 08:28:57;;;;;;;2.40;1.83;;;;;;;24.76;100.00;101489.81;5032565;28;20115;-60
2022/06/26 08:31:23;;;;;;;2.80;1.80;;;;;;;24.61;100.00;101482.97;5032387;28;20037;-60
2022/06/26 08:33:48;;;;;;;3.25;1.83;;;;;;;24.41;100.00;101489.97;5032173;28;20445;-60
2022/06/26 08:36:13;;;;;;;3.92;1.60;;;;;;;24.11;100.00;101453.91;5031388;28;20050;-60
2022/06/26 08:38:39;;;;;;;2.72;1.92;;;;;;;24.14;100.00;101432.97;5032108;28;20037;-59
2022/06/26 08:41:09;;;;;;;4.22;1.88;;;;;;;24.67;100.00;101487.88;5014859;28;20041;-59
2022/06/26 08:43:35;;;;;;;4.80;2.53;;;;;;;24.28;100.00;101464.19;5047490;28;20436;-59
2022/06/26 08:46:04;;;;;;;2.92;1.88;;;;;;;24.09;100.00;101435.16;5031986;28;20033;-61
2022/06/26 08:48:35;;;;;;;6.35;1.90;;;;;;;24.41;100.00;101495.34;5064216;28;20021;-60
2022/06/26 08:51:01;;;;;;;2.10;1.40;;;;;;;24.53;100.00;101504.28;5030514;28;20065;-59
2022/06/26 08:53:27;;;;;;;2.05;1.25;;;;;;;24.65;100.00;101506.00;5065422;28;20076;-60
2022/06/26 08:55:53;;;;;;;4.30;2.08;;;;;;;24.80;100.00;101502.09;5065960;28;20071;-59
2022/06/26 08:58:18;;;;;;;5.13;1.70;;;;;;;24.90;100.00;101499.50;5071343;28;20037;-60
2022/06/26 09:00:46;;;;;;;2.45;1.67;;;;;;;24.59;100.00;101472.34;5036041;28;20087;-60
2022/06/26 09:03:18;;;;;;;3.83;2.00;;;;;;;24.57;100.00;101512.00;5038306;28;20018;-61
2022/06/26 09:05:43;;;;;;;3.05;1.55;;;;;;;24.66;100.00;101458.41;5035789;28;20068;-59
2022/06/26 09:08:17;;;;;;;3.95;1.77;;;;;;;25.51;100.00;101503.41;5067936;28;20131;-59
2022/06/26 09:10:44;;;;;;;4.35;2.00;;;;;;;25.86;100.00;101501.22;5035890;28;20030;-59
2022/06/26 09:13:10;;;;;;;3.03;2.00;;;;;;;26.13;100.00;101514.16;5035899;28;20389;-58
2022/06/26 09:15:41;;;;;;;3.45;1.92;;;;;;;25.75;100.00;101506.69;5035654;28;20036;-59
2022/06/26 09:18:07;;;;;;;3.38;2.00;;;;;;;24.78;100.00;101514.78;5035501;28;20037;-58
2022/06/26 09:20:37;;;;;;;3.55;1.80;;;;;;;24.29;100.00;101512.47;5034585;28;20491;-59
2022/06/26 09:23:03;;;;;;;2.33;1.70;;;;;;;24.02;100.00;101518.16;5066404;28;20053;-60
2022/06/26 09:25:44;;;;;;;3.53;2.03;;;;;;;23.39;100.00;101497.06;5032192;28;20461;-59
2022/06/26 09:28:14;;;;;;;;;;;;;;;23.03;100.00;101517.72;5051315;28;20477;-59
2022/06/26 09:30:53;;;;;;;4.38;1.88;;;;;;;22.37;100.00;101458.06;5034701;28;19909;-59
2022/06/26 09:33:23;;;;;;;4.50;1.65;;;;;;;22.24;100.00;101462.56;5035530;28;20040;-59
2022/06/26 09:35:48;;;;;;;4.70;1.60;;;;;;;22.42;100.00;101508.69;5035346;28;20112;-60
2022/06/26 09:38:19;;;;;;;2.90;1.50;;;;;;;22.44;100.00;101493.38;5035339;28;20363;-59
2022/06/26 09:40:46;;;;;;;3.23;2.07;;;;;;;22.34;100.00;101447.56;5035229;28;20128;-59
2022/06/26 09:43:15;;;;;;;2.45;1.45;;;;;;;22.53;100.00;101449.78;5033856;28;20377;-61
2022/06/26 09:45:40;;;;;;;2.35;1.50;;;;;;;23.05;100.00;101505.03;5033973;28;20033;-60
2022/06/26 09:48:09;;;;;;;3.28;1.50;;;;;;;23.43;100.00;101498.56;5033964;28;20444;-59
2022/06/26 09:50:34;;;;;;;3.75;1.75;;;;;;;24.23;100.00;101518.34;5035110;28;20040;-60
2022/06/26 09:53:01;;;;;;;3.33;1.80;;;;;;;24.06;100.00;101471.22;5067162;28;20045;-60
2022/06/26 09:55:26;;;;;;;2.95;1.70;;;;;;;24.38;100.00;101533.28;5033656;28;20057;-61
2022/06/26 09:57:52;;;;;;;4.97;1.50;;;;;;;24.24;100.00;101528.13;5033956;28;20057;-61
2022/06/26 10:00:17;;;;;;;2.20;1.40;;;;;;;24.00;100.00;101489.66;5067246;28;20044;-61
2022/06/26 10:08:29;;;;;;;2.58;1.30;;;;;;;25.02;100.00;101474.25;5031746;28;20053;-60
2022/06/26 10:10:57;;;;;;;3.97;1.75;;;;;;;25.13;100.00;101499.31;5027712;28;20041;-61
2022/06/26 10:13:23;;;;;;;2.08;1.42;;;;;;;25.17;100.00;101532.25;5033273;28;20034;-60
2022/06/26 10:16:00;;;;;;;5.25;1.83;;;;;;;25.14;100.00;101540.59;5031450;28;20034;-59
2022/06/26 10:18:56;;;;;;;2.90;1.40;;;;;;;25.08;100.00;101533.88;5032841;28;20144;-59
2022/06/26 10:21:22;;;;;;;1.75;1.60;;;;;;;25.08;100.00;101517.69;5033023;28;20047;-60
2022/06/26 10:23:47;;;;;;;3.40;1.58;;;;;;;25.28;100.00;101544.84;5032550;28;20136;-60
2022/06/26 10:26:21;;;;;;;1.58;1.20;;;;;;;25.36;100.00;101545.94;5031081;28;20086;-59
2022/06/26 10:28:58;;;;;;;3.03;1.38;;;;;;;25.14;100.00;101500.19;5031089;28;20469;-59
2022/06/26 10:31:24;;;;;;;5.85;1.30;;;;;;;24.91;100.00;101536.22;5032531;28;20060;-59
2022/06/26 10:33:49;;;;;;;3.03;1.55;;;;;;;24.56;100.00;101522.88;5032982;28;20096;-59
2022/06/26 10:36:22;;;;;;;3.65;2.05;;;;;;;24.42;100.00;101547.34;5033843;28;20496;-60
2022/06/26 10:38:47;;;;;;;3.90;1.80;;;;;;;24.01;100.00;101545.19;5033777;28;20037;-60
2022/06/26 10:44:07;;;;;;;2.50;1.55;;;;;;;23.97;100.00;101543.69;5033989;28;20052;-58
2022/06/26 10:46:45;;;;;;;3.78;2.40;;;;;;;23.82;100.00;101552.91;5032725;28;20382;-58
2022/06/26 10:49:11;;;;;;;3.78;1.55;;;;;;;23.68;100.00;101548.59;5033813;28;20507;-59
2022/06/26 10:51:41;;;;;;;2.20;1.23;;;;;;;23.35;100.00;101535.00;5033795;28;20073;-59
2022/06/26 10:54:23;;;;;;;2.45;1.30;;;;;;;23.23;100.00;101546.66;5034014;28;20057;-57
2022/06/26 10:56:55;;;;;;;4.93;1.60;;;;;;;22.89;100.00;101498.13;5033833;28;20029;-59
2022/06/26 10:59:22;;;;;;;4.60;1.48;;;;;;;22.94;100.00;101487.88;5033569;28;20037;-59
2022/06/26 11:01:49;;;;;;;3.72;1.38;;;;;;;23.44;100.00;101543.25;5033757;28;20076;-58
2022/06/26 11:04:14;;;;;;;1.85;1.30;;;;;;;23.74;100.00;101560.72;5033261;28;20156;-59
2022/06/26 11:06:40;;;;;;;2.42;1.70;;;;;;;23.37;100.00;101490.94;5033594;28;20485;-58
2022/06/26 11:09:07;;;;;;;2.72;1.58;;;;;;;23.64;100.00;101541.78;5033198;28;20404;-60
2022/06/26 11:11:32;;;;;;;3.63;1.90;;;;;;;23.46;100.00;101546.69;5033447;28;20120;-59
2022/06/26 11:14:06;;;;;;;3.47;1.65;;;;;;;23.01;100.00;101515.16;5033195;28;20034;-59
2022/06/26 11:16:35;;;;;;;5.03;1.70;;;;;;;22.92;100.00;101551.59;5033311;28;20033;-60
2022/06/26 11:19:03;;;;;;;2.75;1.85;;;;;;;22.72;100.00;101538.75;5033200;28;20041;-59
2022/06/26 11:21:29;;;;;;;4.45;1.60;;;;;;;22.40;100.00;101499.91;5033313;28;20040;-60